createdAt,value
2017-11-29T00:00:28.360Z,20.57
2017-11-29T00:02:54.749Z,20.17
2017-11-29T00:05:21.883Z,17.87
2017-11-29T00:07:49.051Z,19.67
2017-11-29T00:10:16.230Z,23.97
2017-11-29T00:12:43.391Z,15.63
2017-11-29T00:15:10.530Z,20.97
2017-11-29T00:17:36.948Z,18.53
2017-11-29T00:20:04.159Z,22.97
2017-11-29T00:22:31.340Z,20.97
2017-11-29T00:24:58.456Z,19.67
2017-11-29T00:27:24.840Z,18.80
2017-11-29T00:29:51.231Z,22.03
2017-11-29T00:32:17.547Z,14.67
2017-11-29T00:34:43.930Z,19.50
2017-11-29T00:37:10.351Z,18.57
2017-11-29T00:39:36.719Z,17.83
2017-11-29T00:42:03.210Z,16.23
2017-11-29T00:44:30.368Z,21.60
2017-11-29T00:46:56.720Z,20.43
2017-11-29T00:49:23.864Z,17.37
2017-11-29T00:51:50.214Z,21.57
2017-11-29T00:54:16.549Z,16.37
2017-11-29T00:56:42.858Z,22.70
2017-11-29T00:59:09.195Z,21.73
2017-11-29T01:01:35.498Z,17.27
2017-11-29T01:04:01.791Z,25.93
2017-11-29T01:06:28.102Z,22.70
2017-11-29T01:08:54.383Z,19.90
2017-11-29T01:11:20.654Z,17.70
2017-11-29T01:13:46.920Z,24.57
2017-11-29T01:16:13.927Z,27.50
2017-11-29T01:18:40.176Z,19.00
2017-11-29T01:21:06.453Z,24.40
2017-11-29T01:23:32.720Z,24.50
2017-11-29T01:25:59.042Z,22.10
2017-11-29T01:28:26.030Z,20.03
2017-11-29T01:30:53.036Z,21.53
2017-11-29T01:33:19.281Z,29.50
2017-11-29T01:35:45.570Z,21.90
2017-11-29T01:38:11.834Z,26.53
2017-11-29T01:40:38.098Z,23.33
2017-11-29T01:43:05.110Z,20.20
2017-11-29T01:45:31.387Z,21.20
2017-11-29T01:47:57.674Z,27.20
2017-11-29T01:50:23.960Z,21.23
2017-11-29T01:52:50.228Z,25.87
2017-11-29T01:55:16.510Z,20.40
2017-11-29T01:57:42.825Z,25.00
2017-11-29T02:00:09.912Z,23.13
2017-11-29T02:02:36.168Z,20.83
2017-11-29T02:05:02.466Z,22.00
2017-11-29T02:07:28.717Z,18.70
2017-11-29T02:09:54.985Z,24.17
2017-11-29T02:12:21.973Z,21.30
2017-11-29T02:14:48.248Z,21.30
2017-11-29T02:17:14.509Z,19.93
2017-11-29T02:19:40.805Z,18.37
2017-11-29T02:22:07.110Z,17.13
2017-11-29T02:24:33.439Z,22.90
2017-11-29T02:27:00.481Z,24.57
2017-11-29T02:29:26.773Z,29.00
2017-11-29T02:31:53.777Z,22.70
2017-11-29T02:34:20.066Z,22.37
2017-11-29T02:36:46.321Z,18.00
2017-11-29T02:39:12.622Z,24.47
2017-11-29T02:41:51.221Z,18.50
2017-11-29T02:44:18.271Z,25.60
2017-11-29T02:46:44.566Z,28.20
2017-11-29T02:49:10.884Z,23.53
2017-11-29T02:51:37.172Z,25.83
2017-11-29T02:54:03.491Z,20.90
2017-11-29T02:56:30.567Z,23.67
2017-11-29T02:58:56.921Z,25.53
2017-11-29T03:01:23.956Z,22.57
2017-11-29T03:03:50.246Z,21.50
2017-11-29T03:06:17.294Z,19.67
2017-11-29T03:08:44.345Z,27.23
2017-11-29T03:11:11.370Z,22.53
2017-11-29T03:13:37.662Z,20.80
2017-11-29T03:16:03.950Z,22.47
2017-11-29T03:18:30.213Z,16.83
2017-11-29T03:20:56.502Z,26.83
2017-11-29T03:23:23.498Z,15.67
2017-11-29T03:25:49.770Z,24.57
2017-11-29T03:28:16.777Z,17.00
2017-11-29T03:30:43.023Z,23.37
2017-11-29T03:33:09.320Z,22.53
2017-11-29T03:35:35.579Z,21.10
2017-11-29T03:38:01.853Z,17.33
2017-11-29T03:40:28.113Z,20.80
2017-11-29T03:42:54.393Z,17.13
2017-11-29T03:45:21.395Z,20.70
2017-11-29T03:47:47.696Z,18.30
2017-11-29T03:50:13.942Z,20.00
2017-11-29T03:52:40.209Z,18.23
2017-11-29T03:55:06.458Z,21.03
2017-11-29T03:57:33.470Z,23.10
2017-11-29T03:59:59.734Z,20.90
2017-11-29T04:02:26.726Z,26.63
2017-11-29T04:04:53.011Z,19.30
2017-11-29T04:07:20.065Z,24.73
2017-11-29T04:09:47.096Z,21.50
2017-11-29T04:12:14.150Z,28.70
2017-11-29T04:14:41.199Z,26.00
2017-11-29T04:17:08.210Z,19.40
2017-11-29T04:19:34.478Z,29.73
2017-11-29T04:22:00.805Z,22.30
2017-11-29T04:24:27.805Z,18.03
2017-11-29T04:26:54.084Z,19.03
2017-11-29T04:29:20.448Z,23.90
2017-11-29T04:31:46.758Z,28.40
2017-11-29T04:34:13.054Z,21.13
2017-11-29T04:36:39.305Z,18.57
2017-11-29T04:39:05.614Z,21.67
2017-11-29T04:41:31.862Z,20.77
2017-11-29T04:43:58.906Z,18.37
2017-11-29T04:46:25.911Z,18.23
2017-11-29T04:48:52.201Z,22.53
2017-11-29T04:51:18.507Z,18.87
2017-11-29T04:53:45.522Z,33.27
2017-11-29T04:56:11.879Z,18.97
2017-11-29T04:58:38.977Z,22.03
2017-11-29T05:01:05.316Z,23.87
2017-11-29T05:03:31.643Z,22.17
2017-11-29T05:05:57.988Z,20.20
2017-11-29T05:08:24.278Z,19.50
2017-11-29T05:10:50.580Z,17.50
2017-11-29T05:13:17.214Z,20.73
2017-11-29T05:15:43.529Z,21.87
2017-11-29T05:18:09.824Z,28.50
2017-11-29T05:20:36.187Z,18.53
2017-11-29T05:23:02.508Z,23.03
2017-11-29T05:25:28.857Z,18.73
2017-11-29T05:27:55.154Z,24.87
2017-11-29T05:30:21.473Z,22.60
2017-11-29T05:32:47.793Z,20.80
2017-11-29T05:35:14.124Z,24.37
2017-11-29T05:37:41.133Z,25.23
2017-11-29T05:40:07.459Z,21.03
2017-11-29T05:42:33.758Z,23.27
2017-11-29T05:45:00.075Z,20.97
2017-11-29T05:47:26.372Z,21.10
2017-11-29T05:49:52.699Z,33.10
2017-11-29T05:52:18.993Z,27.10
2017-11-29T05:54:45.300Z,33.57
2017-11-29T05:57:11.605Z,24.37
2017-11-29T05:59:38.655Z,30.33
2017-11-29T06:02:05.721Z,30.23
2017-11-29T06:04:32.028Z,26.50
2017-11-29T06:06:59.102Z,19.00
2017-11-29T06:09:25.410Z,25.20
2017-11-29T06:11:52.427Z,24.60
2017-11-29T06:14:18.731Z,21.63
2017-11-29T06:16:45.056Z,23.83
2017-11-29T06:19:11.350Z,23.20
2017-11-29T06:21:38.413Z,22.93
2017-11-29T06:24:04.774Z,23.43
2017-11-29T06:26:31.228Z,25.00
2017-11-29T06:28:57.538Z,21.67
2017-11-29T06:31:23.884Z,23.10
2017-11-29T06:33:50.157Z,23.33
2017-11-29T06:36:17.179Z,26.90
2017-11-29T06:38:43.442Z,20.27
2017-11-29T06:41:09.720Z,25.30
2017-11-29T06:43:35.999Z,21.80
2017-11-29T06:46:02.273Z,26.63
2017-11-29T06:48:28.519Z,27.30
2017-11-29T06:50:55.525Z,27.33
2017-11-29T06:53:21.783Z,26.43
2017-11-29T06:55:48.082Z,20.83
2017-11-29T06:58:14.362Z,27.57
2017-11-29T07:00:40.643Z,18.33
2017-11-29T07:03:06.925Z,26.00
2017-11-29T07:05:33.216Z,21.03
2017-11-29T07:07:59.484Z,26.47
2017-11-29T07:10:25.767Z,25.43
2017-11-29T07:12:52.016Z,26.20
2017-11-29T07:15:18.298Z,19.30
2017-11-29T07:17:44.566Z,17.50
2017-11-29T07:20:10.834Z,21.20
2017-11-29T07:22:37.818Z,19.20
2017-11-29T07:25:04.156Z,26.50
2017-11-29T07:27:30.413Z,20.80
2017-11-29T07:29:56.709Z,18.57
2017-11-29T07:32:22.987Z,23.50
2017-11-29T07:34:49.259Z,17.53
2017-11-29T07:37:15.513Z,20.30
2017-11-29T07:39:41.795Z,19.53
2017-11-29T07:42:08.057Z,17.83
2017-11-29T07:44:34.340Z,19.60
2017-11-29T07:47:00.604Z,21.37
2017-11-29T07:49:26.849Z,19.33
2017-11-29T07:51:53.097Z,23.57
2017-11-29T07:54:19.411Z,28.23
2017-11-29T07:56:45.661Z,19.17
2017-11-29T07:59:11.959Z,25.17
2017-11-29T08:01:38.251Z,22.50
2017-11-29T08:04:04.505Z,18.40
2017-11-29T08:06:30.804Z,17.10
2017-11-29T08:08:57.079Z,17.10
2017-11-29T08:11:23.337Z,17.90
2017-11-29T08:13:49.602Z,20.53
2017-11-29T08:16:16.610Z,23.80
2017-11-29T08:18:42.895Z,21.73
2017-11-29T08:21:09.179Z,20.63
2017-11-29T08:23:35.498Z,22.23
2017-11-29T08:26:01.799Z,20.80
2017-11-29T08:28:28.132Z,24.10
2017-11-29T08:30:54.462Z,18.77
2017-11-29T08:33:20.800Z,18.03
2017-11-29T08:35:47.114Z,20.00
2017-11-29T08:38:13.435Z,31.30
2017-11-29T08:40:40.490Z,21.60
2017-11-29T08:43:06.794Z,18.90
2017-11-29T08:45:33.069Z,29.87
2017-11-29T08:47:59.385Z,18.60
2017-11-29T08:50:25.755Z,17.60
2017-11-29T08:52:52.800Z,25.03
2017-11-29T08:55:19.094Z,16.17
2017-11-29T08:57:45.397Z,16.50
2017-11-29T09:00:11.709Z,19.03
2017-11-29T09:02:38.024Z,19.40
2017-11-29T09:05:04.337Z,19.63
2017-11-29T09:07:30.625Z,17.53
2017-11-29T09:09:57.630Z,19.30
2017-11-29T09:12:23.952Z,20.80
2017-11-29T09:14:50.221Z,16.70
2017-11-29T09:17:16.517Z,23.30
2017-11-29T09:19:42.790Z,21.23
2017-11-29T09:22:09.818Z,15.70
2017-11-29T09:24:36.839Z,16.97
2017-11-29T09:27:03.151Z,20.10
2017-11-29T09:29:29.470Z,20.60
2017-11-29T09:31:55.750Z,17.33
2017-11-29T09:34:22.156Z,15.63
2017-11-29T09:36:48.496Z,19.57
2017-11-29T09:39:14.802Z,14.03
2017-11-29T09:41:41.104Z,18.30
2017-11-29T09:44:08.160Z,15.00
2017-11-29T09:46:35.216Z,17.50
2017-11-29T09:49:01.497Z,11.40
2017-11-29T09:51:27.817Z,17.90
2017-11-29T09:53:54.111Z,13.10
2017-11-29T09:56:20.432Z,17.67
2017-11-29T09:58:46.782Z,13.93
2017-11-29T10:01:13.075Z,19.63
2017-11-29T10:03:40.181Z,21.10
2017-11-29T10:06:07.235Z,17.90
2017-11-29T10:08:33.517Z,17.00
2017-11-29T10:11:00.560Z,14.90
2017-11-29T10:13:27.588Z,12.50
2017-11-29T10:15:53.891Z,11.70
2017-11-29T10:18:20.201Z,13.70
2017-11-29T10:20:46.502Z,9.73
2017-11-29T10:23:12.799Z,13.70
2017-11-29T10:25:39.128Z,10.47
2017-11-29T10:28:05.423Z,10.97
2017-11-29T10:30:32.507Z,9.60
2017-11-29T10:32:58.779Z,13.63
2017-11-29T10:35:25.087Z,12.13
2017-11-29T10:37:52.119Z,14.17
2017-11-29T10:40:18.408Z,14.43
2017-11-29T10:42:44.683Z,12.90
2017-11-29T10:45:10.978Z,10.07
2017-11-29T10:47:37.245Z,13.87
2017-11-29T10:50:03.574Z,12.37
2017-11-29T10:52:29.874Z,16.33
2017-11-29T10:54:56.176Z,12.23
2017-11-29T10:57:22.494Z,11.63
2017-11-29T10:59:48.781Z,10.20
2017-11-29T11:02:15.050Z,17.00
2017-11-29T11:04:41.337Z,12.73
2017-11-29T11:07:07.616Z,17.67
2017-11-29T11:09:33.916Z,13.07
2017-11-29T11:12:00.945Z,12.83
2017-11-29T11:14:27.234Z,11.80
2017-11-29T11:16:53.509Z,14.03
2017-11-29T11:19:19.822Z,11.47
2017-11-29T11:21:46.108Z,13.87
2017-11-29T11:24:12.398Z,15.87
2017-11-29T11:26:38.719Z,15.33
2017-11-29T11:29:05.026Z,15.90
2017-11-29T11:31:31.311Z,10.60
2017-11-29T11:33:57.709Z,15.67
2017-11-29T11:36:24.030Z,13.43
2017-11-29T11:38:50.368Z,16.00
2017-11-29T11:41:16.695Z,9.50
2017-11-29T11:43:43.013Z,13.57
2017-11-29T11:46:09.281Z,10.40
2017-11-29T11:48:35.595Z,19.70
2017-11-29T11:51:03.018Z,14.50
2017-11-29T11:53:29.330Z,14.73
2017-11-29T11:55:55.595Z,11.67
2017-11-29T11:58:21.922Z,9.17
2017-11-29T12:00:48.208Z,13.90
2017-11-29T12:03:15.249Z,15.33
2017-11-29T12:05:42.313Z,14.90
2017-11-29T12:08:08.610Z,18.03
2017-11-29T12:10:34.902Z,14.83
2017-11-29T12:13:01.226Z,15.97
2017-11-29T12:15:27.514Z,17.67
2017-11-29T12:17:54.590Z,16.83
2017-11-29T12:20:20.885Z,14.83
2017-11-29T12:22:47.193Z,15.73
2017-11-29T12:25:13.482Z,14.50
2017-11-29T12:27:39.777Z,13.50
2017-11-29T12:30:06.057Z,14.23
2017-11-29T12:32:32.363Z,15.53
2017-11-29T12:34:58.646Z,12.53
2017-11-29T12:37:24.919Z,13.00
2017-11-29T12:39:51.203Z,11.60
2017-11-29T12:42:17.520Z,12.50
2017-11-29T12:44:43.804Z,12.47
2017-11-29T12:47:10.863Z,13.83
2017-11-29T12:49:49.524Z,10.83
2017-11-29T12:52:15.851Z,10.37
2017-11-29T12:54:42.137Z,9.80
2017-11-29T12:57:08.469Z,14.70
2017-11-29T12:59:34.751Z,19.87
2017-11-29T13:02:01.075Z,10.50
2017-11-29T13:04:27.388Z,10.53
2017-11-29T13:06:53.703Z,13.77
2017-11-29T13:09:20.034Z,12.63
2017-11-29T13:11:46.373Z,10.73
2017-11-29T13:14:12.667Z,14.90
2017-11-29T13:16:39.730Z,20.90
2017-11-29T13:19:06.002Z,11.47
2017-11-29T13:21:32.336Z,7.80
2017-11-29T13:23:58.633Z,10.50
2017-11-29T13:26:25.227Z,15.67
2017-11-29T13:28:51.505Z,11.30
2017-11-29T13:31:17.851Z,10.43
2017-11-29T13:33:44.155Z,11.57
2017-11-29T13:36:10.448Z,14.70
2017-11-29T13:38:36.751Z,9.13
2017-11-29T13:41:03.062Z,12.00
2017-11-29T13:43:29.362Z,10.20
2017-11-29T13:45:56.421Z,10.13
2017-11-29T13:48:22.711Z,14.70
2017-11-29T13:50:49.036Z,9.60
2017-11-29T13:53:15.336Z,9.70
2017-11-29T13:55:41.641Z,8.80
2017-11-29T13:58:07.944Z,11.30
2017-11-29T14:00:34.985Z,12.90
2017-11-29T14:03:01.268Z,13.73
2017-11-29T14:05:27.570Z,9.77
2017-11-29T14:07:53.857Z,16.90
2017-11-29T14:10:20.137Z,12.13
2017-11-29T14:12:46.443Z,14.97
2017-11-29T14:15:13.437Z,16.07
2017-11-29T14:17:39.696Z,14.33
2017-11-29T14:20:05.970Z,10.73
2017-11-29T14:22:32.225Z,9.10
2017-11-29T14:24:58.493Z,15.30
2017-11-29T14:27:24.774Z,16.50
2017-11-29T14:29:51.030Z,16.67
2017-11-29T14:32:17.288Z,12.77
2017-11-29T14:34:43.554Z,13.03
2017-11-29T14:37:09.852Z,14.70
2017-11-29T14:39:36.870Z,17.27
2017-11-29T14:42:03.204Z,16.03
2017-11-29T14:44:29.567Z,12.73
2017-11-29T14:46:56.584Z,20.23
2017-11-29T14:49:22.847Z,10.90
2017-11-29T14:51:49.882Z,13.07
2017-11-29T14:54:16.885Z,14.90
2017-11-29T14:56:43.233Z,10.80
2017-11-29T14:59:09.569Z,17.63
2017-11-29T15:01:35.829Z,13.47
2017-11-29T15:04:02.172Z,10.23
2017-11-29T15:06:28.452Z,13.47
2017-11-29T15:08:54.750Z,13.73
2017-11-29T15:11:21.823Z,14.13
2017-11-29T15:13:48.109Z,15.37
2017-11-29T15:16:15.088Z,12.03
2017-11-29T15:18:41.350Z,15.17
2017-11-29T15:21:07.606Z,15.53
2017-11-29T15:23:34.649Z,19.70
2017-11-29T15:26:01.653Z,15.57
2017-11-29T15:28:27.935Z,13.73
2017-11-29T15:30:54.235Z,16.13
2017-11-29T15:33:20.567Z,19.50
2017-11-29T15:35:46.868Z,16.33
2017-11-29T15:38:13.163Z,23.70
2017-11-29T15:40:39.449Z,19.47
2017-11-29T15:43:05.785Z,20.13
2017-11-29T15:45:32.089Z,18.37
2017-11-29T15:47:58.361Z,26.53
2017-11-29T15:50:25.406Z,18.77
2017-11-29T15:52:52.462Z,15.63
2017-11-29T15:55:19.506Z,17.90
2017-11-29T15:57:46.559Z,14.37
2017-11-29T16:00:13.605Z,27.13
2017-11-29T16:02:40.651Z,24.37
2017-11-29T16:05:07.741Z,16.97
2017-11-29T16:07:34.060Z,17.40
2017-11-29T16:10:00.403Z,15.17
2017-11-29T16:12:26.848Z,13.10
2017-11-29T16:14:53.236Z,16.53
2017-11-29T16:17:20.264Z,11.77
2017-11-29T16:19:47.290Z,15.90
2017-11-29T16:22:13.570Z,21.03
2017-11-29T16:24:39.845Z,12.60
2017-11-29T16:27:06.146Z,13.00
2017-11-29T16:29:32.463Z,13.70
2017-11-29T16:31:58.778Z,15.83
2017-11-29T16:34:25.816Z,13.27
2017-11-29T16:36:52.849Z,16.50
2017-11-29T16:39:19.169Z,20.47
2017-11-29T16:41:45.521Z,16.90
2017-11-29T16:44:12.529Z,20.40
2017-11-29T16:46:38.821Z,12.30
2017-11-29T16:49:05.140Z,13.30
2017-11-29T16:51:32.178Z,16.37
2017-11-29T16:53:59.216Z,15.27
2017-11-29T16:56:25.486Z,16.40
2017-11-29T16:58:51.802Z,12.83
2017-11-29T17:01:18.087Z,12.37
2017-11-29T17:03:44.413Z,14.57
2017-11-29T17:06:10.718Z,15.60
2017-11-29T17:08:37.062Z,14.90
2017-11-29T17:11:03.404Z,14.33
2017-11-29T17:13:29.762Z,17.63
2017-11-29T17:15:56.156Z,18.57
2017-11-29T17:18:22.515Z,14.33
2017-11-29T17:20:48.792Z,17.63
2017-11-29T17:23:15.096Z,17.40
2017-11-29T17:25:42.155Z,15.63
2017-11-29T17:28:08.467Z,14.47
2017-11-29T17:30:35.500Z,14.05
2017-11-29T17:33:01.818Z,16.13
2017-11-29T17:35:28.908Z,16.20
2017-11-29T17:37:55.226Z,19.87
2017-11-29T17:40:22.283Z,19.20
2017-11-29T17:42:48.594Z,21.62
2017-11-29T17:45:15.656Z,18.70
2017-11-29T17:47:42.738Z,22.13
2017-11-29T17:50:09.080Z,20.07
2017-11-29T17:52:35.361Z,19.05
2017-11-29T17:55:02.392Z,15.50
2017-11-29T17:57:28.746Z,17.47
2017-11-29T17:59:55.073Z,21.80
2017-11-29T18:02:21.441Z,16.23
2017-11-29T18:04:47.764Z,17.60
2017-11-29T18:07:14.099Z,18.60
2017-11-29T18:09:40.396Z,20.03
2017-11-29T18:12:07.478Z,19.50
2017-11-29T18:14:33.802Z,14.52
2017-11-29T18:17:00.117Z,17.27
2017-11-29T18:19:27.140Z,16.30
2017-11-29T18:21:53.446Z,14.77
2017-11-29T18:24:19.809Z,14.97
2017-11-29T18:26:46.169Z,15.18
2017-11-29T18:29:13.184Z,20.27
2017-11-29T18:31:39.507Z,18.08
2017-11-29T18:34:05.784Z,15.77
2017-11-29T18:36:32.894Z,16.67
2017-11-29T18:38:59.157Z,24.75
2017-11-29T18:41:25.458Z,19.70
2017-11-29T18:43:51.772Z,20.08
2017-11-29T18:46:18.119Z,17.73
2017-11-29T18:48:44.471Z,20.62
2017-11-29T18:51:10.748Z,20.00
2017-11-29T18:53:37.082Z,24.40
2017-11-29T18:56:03.366Z,34.22
2017-11-29T18:58:29.674Z,21.80
2017-11-29T19:00:55.987Z,17.52
2017-11-29T19:03:22.324Z,16.48
2017-11-29T19:05:48.657Z,20.85
2017-11-29T19:08:15.725Z,22.03
2017-11-29T19:10:42.037Z,26.30
2017-11-29T19:13:09.098Z,25.15
2017-11-29T19:15:36.333Z,23.98
2017-11-29T19:18:03.393Z,27.37
2017-11-29T19:20:30.452Z,24.55
2017-11-29T19:22:56.726Z,29.83
2017-11-29T19:25:23.021Z,25.00
2017-11-29T19:27:49.315Z,25.98
2017-11-29T19:30:15.664Z,28.40
2017-11-29T19:32:42.715Z,27.00
2017-11-29T19:35:09.019Z,28.02
2017-11-29T19:37:35.526Z,26.00
2017-11-29T19:40:01.824Z,26.80
2017-11-29T19:42:28.108Z,32.10
2017-11-29T19:44:54.382Z,39.35
2017-11-29T19:47:20.686Z,35.75
2017-11-29T19:49:46.986Z,46.65
2017-11-29T19:52:13.571Z,37.90
2017-11-29T19:54:39.821Z,46.67
2017-11-29T19:57:06.149Z,40.40
2017-11-29T19:59:33.200Z,45.53
2017-11-29T20:01:59.481Z,42.95
2017-11-29T20:04:25.751Z,43.25
2017-11-29T20:06:52.123Z,54.03
2017-11-29T20:09:18.408Z,44.28
2017-11-29T20:11:44.709Z,46.72
2017-11-29T20:14:11.752Z,48.35
2017-11-29T20:16:38.074Z,56.53
2017-11-29T20:19:04.381Z,48.22
2017-11-29T20:21:30.695Z,44.63
2017-11-29T20:23:57.030Z,45.72
2017-11-29T20:26:23.384Z,42.55
2017-11-29T20:28:49.661Z,50.28
2017-11-29T20:31:15.999Z,53.33
2017-11-29T20:33:42.301Z,41.43
2017-11-29T20:36:09.338Z,47.28
2017-11-29T20:38:35.661Z,49.22
2017-11-29T20:41:01.964Z,46.67
2017-11-29T20:43:28.259Z,44.95
2017-11-29T20:45:54.517Z,49.75
2017-11-29T20:48:20.811Z,47.10
2017-11-29T20:50:47.134Z,40.00
2017-11-29T20:53:14.183Z,45.80
2017-11-29T20:55:41.214Z,51.63
2017-11-29T20:58:07.589Z,44.63
2017-11-29T21:00:33.876Z,53.40
2017-11-29T21:03:00.158Z,46.83
2017-11-29T21:05:26.468Z,51.08
2017-11-29T21:07:52.769Z,50.20
2017-11-29T21:10:19.784Z,51.45
2017-11-29T21:12:46.099Z,60.25
2017-11-29T21:15:12.387Z,69.78
2017-11-29T21:17:39.487Z,78.35
2017-11-29T21:20:05.744Z,76.93
2017-11-29T21:22:32.028Z,79.35
2017-11-29T21:24:58.324Z,74.35
2017-11-29T21:27:25.388Z,80.82
2017-11-29T21:29:51.645Z,80.10
2017-11-29T21:32:17.918Z,70.90
2017-11-29T21:34:44.208Z,80.05
2017-11-29T21:37:10.511Z,82.82
2017-11-29T21:39:36.812Z,79.60
2017-11-29T21:42:03.134Z,76.75
2017-11-29T21:44:29.434Z,67.62
2017-11-29T21:46:55.735Z,80.72
2017-11-29T21:49:22.024Z,73.37
2017-11-29T21:51:48.745Z,82.95
2017-11-29T21:54:15.040Z,72.47
2017-11-29T21:56:41.363Z,74.43
2017-11-29T21:59:07.916Z,64.37
2017-11-29T22:01:34.197Z,60.95
2017-11-29T22:04:01.217Z,71.60
2017-11-29T22:06:27.494Z,68.53
2017-11-29T22:08:53.741Z,69.53
2017-11-29T22:11:20.018Z,68.00
2017-11-29T22:13:46.286Z,66.07
2017-11-29T22:16:12.551Z,68.18
2017-11-29T22:18:39.002Z,65.95
2017-11-29T22:21:05.334Z,58.25
2017-11-29T22:23:31.737Z,60.83
2017-11-29T22:25:58.938Z,66.30
2017-11-29T22:28:25.261Z,71.47
2017-11-29T22:30:51.578Z,69.47
2017-11-29T22:33:17.899Z,65.62
2017-11-29T22:35:44.164Z,55.92
2017-11-29T22:38:11.207Z,54.60
2017-11-29T22:40:37.473Z,61.47
2017-11-29T22:43:03.771Z,67.03
2017-11-29T22:45:30.017Z,70.47
2017-11-29T22:47:57.030Z,77.00
2017-11-29T22:50:23.274Z,79.70
2017-11-29T22:52:49.547Z,94.07
2017-11-29T22:55:15.809Z,83.95
2017-11-29T22:57:42.121Z,86.00
2017-11-29T23:00:08.412Z,89.55
2017-11-29T23:02:35.431Z,95.90
2017-11-29T23:05:01.679Z,82.78
2017-11-29T23:07:28.703Z,92.18
2017-11-29T23:09:54.966Z,85.40
2017-11-29T23:12:21.258Z,91.82
2017-11-29T23:14:47.627Z,93.07
2017-11-29T23:17:13.927Z,98.82
2017-11-29T23:19:40.209Z,88.05
2017-11-29T23:22:06.540Z,89.10
2017-11-29T23:24:32.859Z,93.10
2017-11-29T23:26:59.178Z,87.72
2017-11-29T23:29:25.450Z,94.87
2017-11-29T23:31:51.737Z,84.03
2017-11-29T23:34:18.059Z,100.72
2017-11-29T23:36:45.046Z,92.68
2017-11-29T23:39:11.350Z,91.93
2017-11-29T23:41:37.665Z,99.82
2017-11-29T23:44:04.700Z,95.37
2017-11-29T23:46:30.971Z,94.05
2017-11-29T23:48:57.262Z,97.05
2017-11-29T23:51:24.306Z,94.45
2017-11-29T23:53:50.617Z,84.07
2017-11-29T23:56:16.892Z,96.18
2017-11-29T23:58:43.212Z,107.53
